Main page
METAR-TAF:

METAR-TAF

Airports :

Khabarovsk Novy Airport

Khabarovsk, Russia

latitude: 48-31N, longitude: 135-10E, elevation: 72 m

Current weather observation

The report was made 22 minutes ago, at 03:30 UTC
Wind 14 kt from the West/Southwest
Temperature -15°C
Humidity 65%
Pressure 1007 hPa
Visibility 10 km or more
Low drifting snow

METAR: UHHH 030330Z 24007MPS 9999 DRSN NSC M15/M20 Q1007 R23R/820350 NOSIG RMK QFE749/0999

Time: 13:52 (03:52 UTC)

Forecast

The report was made 2 hours and 5 minutes ago, at 01:47 UTC
Forecast valid from 03 at 03 UTC to 04 at 09 UTC
Wind 16 kt from the West/Southwest
Visibility 10 km or more
Scattered clouds at a height of 2000 ft, Cumulonimbus.
Low drifting snow

TAF: UHHH 030147Z 0303/0409 25008MPS 9999 DRSN SCT020CB

Weather observations and forecasts of more than 4000 airports (METAR and TAF reports).

The available stations are represented by yellow and red dots on the map.

Hover mouse over dot to see the name of the station.

Then click to see weather observations and forecasts.

To change the map : click on the green buttons with a black cross to zoom in, on the green button with a dash to zoom out, or on the green arrows for adjacent maps.


METAR-TAF: